createdAt,value
2023-05-02T00:01:18.822Z,101560.94
2023-05-02T00:03:45.423Z,101558.97
2023-05-02T00:06:12.661Z,101562.59
2023-05-02T00:08:39.358Z,101557.28
2023-05-02T00:11:06.049Z,101558.81
2023-05-02T00:13:32.483Z,101555.63
2023-05-02T00:15:58.953Z,101556.44
2023-05-02T00:18:25.550Z,101557.56
2023-05-02T00:20:52.293Z,101555.75
2023-05-02T00:23:18.698Z,101553.53
2023-05-02T00:25:46.102Z,101549.50
2023-05-02T00:28:13.747Z,101560.59
2023-05-02T00:30:47.203Z,101555.31
2023-05-02T00:33:14.912Z,101555.91
2023-05-02T00:35:42.058Z,101555.50
2023-05-02T00:38:08.573Z,101555.91
2023-05-02T00:40:49.322Z,101568.41
2023-05-02T00:43:16.476Z,101560.22
2023-05-02T00:45:44.209Z,101561.88
2023-05-02T00:48:11.506Z,101561.19
2023-05-02T00:50:40.523Z,101560.66
2023-05-02T00:53:08.731Z,101563.13
2023-05-02T00:55:36.061Z,101563.97
2023-05-02T00:58:06.718Z,101572.59
2023-05-02T01:01:02.904Z,101572.53
2023-05-02T01:03:44.745Z,101570.25
2023-05-02T01:06:36.696Z,101568.53
2023-05-02T01:09:12.961Z,101569.75
2023-05-02T01:12:10.266Z,101566.00
2023-05-02T01:14:42.738Z,101559.31
2023-05-02T01:17:13.931Z,101563.44
2023-05-02T01:19:43.663Z,101568.22
2023-05-02T01:22:11.704Z,101572.22
2023-05-02T01:25:09.202Z,101564.53
2023-05-02T01:27:57.798Z,101565.31
2023-05-02T01:30:26.746Z,101565.56
2023-05-02T01:32:55.357Z,101572.38
2023-05-02T01:35:24.347Z,101573.78
2023-05-02T01:37:53.082Z,101575.75
2023-05-02T01:40:22.723Z,101571.31
2023-05-02T01:42:51.764Z,101575.63
2023-05-02T01:45:20.970Z,101577.38
2023-05-02T01:47:48.809Z,101586.69
2023-05-02T01:50:20.133Z,101582.50
2023-05-02T01:52:49.508Z,101579.03
2023-05-02T01:55:17.744Z,101587.31
2023-05-02T01:57:46.606Z,101585.09
2023-05-02T02:00:16.316Z,101582.06
2023-05-02T02:02:45.289Z,101591.97
2023-05-02T02:05:14.864Z,101595.97
2023-05-02T02:07:43.175Z,101589.34
2023-05-02T02:10:10.174Z,101594.38
2023-05-02T02:12:41.705Z,101603.97
2023-05-02T02:15:34.277Z,101608.03
2023-05-02T02:18:05.416Z,101618.47
2023-05-02T02:20:32.781Z,101617.97
2023-05-02T02:23:03.091Z,101623.78
2023-05-02T02:25:29.884Z,101622.25
2023-05-02T02:27:57.027Z,101627.25
2023-05-02T02:30:23.799Z,101637.69
2023-05-02T02:32:50.258Z,101646.56
2023-05-02T02:35:17.134Z,101658.72
2023-05-02T02:37:52.068Z,101662.38
2023-05-02T02:40:39.986Z,101664.44
2023-05-02T02:43:15.469Z,101675.00
2023-05-02T02:46:04.409Z,101687.59
2023-05-02T02:48:48.997Z,101696.38
2023-05-02T02:51:52.907Z,101694.97
2023-05-02T02:54:34.697Z,101701.03
2023-05-02T02:57:47.440Z,101699.38
2023-05-02T03:00:20.352Z,101715.19
2023-05-02T03:02:47.898Z,101716.03
2023-05-02T03:05:15.496Z,101718.44
2023-05-02T03:07:42.086Z,101720.09
2023-05-02T03:10:09.328Z,101735.19
2023-05-02T03:12:37.614Z,101741.63
2023-05-02T03:15:25.064Z,101750.25
2023-05-02T03:17:51.947Z,101754.78
2023-05-02T03:20:19.057Z,101750.38
2023-05-02T03:22:45.604Z,101760.28
2023-05-02T03:25:12.741Z,101762.44
2023-05-02T03:27:43.320Z,101772.50
2023-05-02T03:30:11.476Z,101774.88
2023-05-02T03:32:38.061Z,101782.94
2023-05-02T03:35:05.569Z,101783.09
2023-05-02T03:37:37.640Z,101791.31
2023-05-02T03:40:04.567Z,101793.84
2023-05-02T03:42:31.096Z,101804.97
2023-05-02T03:44:58.200Z,101795.59
2023-05-02T03:47:27.257Z,101806.59
2023-05-02T03:49:53.850Z,101805.06
2023-05-02T03:52:20.988Z,101813.84
2023-05-02T03:54:50.002Z,101801.00
2023-05-02T03:57:16.542Z,101814.16
2023-05-02T03:59:45.599Z,101819.22
2023-05-02T04:02:20.820Z,101826.84
2023-05-02T04:04:49.029Z,101828.00
2023-05-02T04:07:19.667Z,101831.78
2023-05-02T04:09:51.224Z,101841.97
2023-05-02T04:12:17.828Z,101843.84
2023-05-02T04:14:47.996Z,101853.38
2023-05-02T04:17:15.963Z,101851.53
2023-05-02T04:19:48.681Z,101857.75
2023-05-02T04:22:15.957Z,101864.09
2023-05-02T04:24:47.025Z,101866.97
2023-05-02T04:27:15.487Z,101870.31
2023-05-02T04:29:42.699Z,101874.13
2023-05-02T04:32:11.704Z,101878.47
2023-05-02T04:34:39.354Z,101877.50
2023-05-02T04:37:06.347Z,101884.28
2023-05-02T04:39:34.432Z,101886.59
2023-05-02T04:42:05.024Z,101888.13
2023-05-02T04:44:36.361Z,101901.59
2023-05-02T04:47:04.551Z,101903.81
2023-05-02T04:49:32.067Z,101909.41
2023-05-02T04:51:59.198Z,101914.03
2023-05-02T04:54:25.725Z,101912.66
2023-05-02T04:56:52.288Z,101915.09
2023-05-02T04:59:19.725Z,101919.50
2023-05-02T05:01:46.714Z,101934.41
2023-05-02T05:04:13.352Z,101938.97
2023-05-02T05:06:40.146Z,101940.75
2023-05-02T05:09:07.079Z,101940.94
2023-05-02T05:11:35.589Z,101953.03
2023-05-02T05:14:04.365Z,101953.03
2023-05-02T05:16:33.460Z,101958.50
2023-05-02T05:19:00.395Z,101960.94
2023-05-02T05:21:27.355Z,101962.94
2023-05-02T05:23:54.500Z,101958.75
2023-05-02T05:26:26.946Z,101968.44
2023-05-02T05:28:54.213Z,101971.44
2023-05-02T05:31:24.436Z,101978.28
2023-05-02T05:33:54.749Z,101979.56
2023-05-02T05:36:23.748Z,101983.09
2023-05-02T05:38:51.594Z,101993.66
2023-05-02T05:41:18.821Z,101993.78
2023-05-02T05:43:49.068Z,101996.81
2023-05-02T05:46:15.822Z,102001.84
2023-05-02T05:48:42.404Z,102005.41
2023-05-02T05:51:09.455Z,102007.31
2023-05-02T05:53:36.099Z,102017.22
2023-05-02T05:56:12.151Z,102019.84
2023-05-02T05:58:44.003Z,102020.63
2023-05-02T06:01:12.710Z,102022.16
2023-05-02T06:03:40.134Z,102018.66
2023-05-02T06:06:06.821Z,102022.22
2023-05-02T06:08:33.325Z,102030.44
2023-05-02T06:10:59.774Z,102035.28
2023-05-02T06:13:26.666Z,102038.56
2023-05-02T06:15:53.125Z,102042.66
2023-05-02T06:18:19.683Z,102037.16
2023-05-02T06:20:46.122Z,102045.81
2023-05-02T06:23:12.773Z,102042.22
2023-05-02T06:25:39.427Z,102050.59
2023-05-02T06:28:06.172Z,102060.97
2023-05-02T06:30:32.786Z,102056.69
2023-05-02T06:32:59.313Z,102069.13
2023-05-02T06:35:25.805Z,102064.97
2023-05-02T06:37:52.254Z,102076.38
2023-05-02T06:40:18.810Z,102077.91
2023-05-02T06:42:45.451Z,102083.72
2023-05-02T06:45:11.844Z,102089.63
2023-05-02T06:47:38.384Z,102099.84
2023-05-02T06:50:05.309Z,102091.19
2023-05-02T06:52:31.729Z,102104.91
2023-05-02T06:54:58.228Z,102114.69
2023-05-02T06:57:25.154Z,102118.06
2023-05-02T06:59:51.565Z,102118.97
2023-05-02T07:02:18.365Z,102121.41
2023-05-02T07:04:45.197Z,102130.75
2023-05-02T07:07:11.824Z,102135.53
2023-05-02T07:09:38.300Z,102135.41
2023-05-02T07:12:06.889Z,102129.00
2023-05-02T07:14:33.621Z,102123.84
2023-05-02T07:17:00.478Z,102133.09
2023-05-02T07:19:26.973Z,102136.34
2023-05-02T07:21:53.449Z,102136.25
2023-05-02T07:24:20.006Z,102140.81
2023-05-02T07:26:46.460Z,102145.22
2023-05-02T07:29:13.025Z,102156.81
2023-05-02T07:31:39.597Z,102152.06
2023-05-02T07:34:06.313Z,102146.88
2023-05-02T07:36:32.801Z,102161.84
2023-05-02T07:38:59.264Z,102170.16
2023-05-02T07:41:25.839Z,102166.06
2023-05-02T07:43:52.323Z,102171.75
2023-05-02T07:46:18.873Z,102166.47
2023-05-02T07:48:45.521Z,102171.22
2023-05-02T07:51:12.174Z,102170.69
2023-05-02T07:53:38.651Z,102166.25
2023-05-02T07:56:08.820Z,102165.16
2023-05-02T07:58:37.197Z,102164.34
2023-05-02T08:01:03.942Z,102177.94
2023-05-02T08:03:31.504Z,102172.47
2023-05-02T08:05:58.069Z,102163.69
2023-05-02T08:08:25.164Z,102171.38
2023-05-02T08:10:51.675Z,102163.84
2023-05-02T08:13:18.203Z,102175.34
2023-05-02T08:15:44.827Z,102174.47
2023-05-02T08:18:11.714Z,102189.59
2023-05-02T08:20:38.186Z,102195.28
2023-05-02T08:23:04.671Z,102180.56
2023-05-02T08:25:31.169Z,102203.22
2023-05-02T08:27:57.729Z,102202.06
2023-05-02T08:30:24.475Z,102203.00
2023-05-02T08:32:51.065Z,102205.25
2023-05-02T08:35:17.561Z,102191.31
2023-05-02T08:37:44.055Z,102196.56
2023-05-02T08:40:12.569Z,102193.19
2023-05-02T08:42:44.073Z,102192.03
2023-05-02T08:45:16.339Z,102204.72
2023-05-02T08:47:44.600Z,102217.66
2023-05-02T08:50:11.909Z,102216.41
2023-05-02T08:52:39.057Z,102219.53
2023-05-02T08:55:07.321Z,102221.22
2023-05-02T08:57:34.021Z,102221.47
2023-05-02T09:00:00.872Z,102228.19
2023-05-02T09:02:54.248Z,102227.53
2023-05-02T09:05:24.486Z,102224.69
2023-05-02T09:07:52.136Z,102220.25
2023-05-02T09:10:18.777Z,102239.97
2023-05-02T09:12:45.342Z,102246.41
2023-05-02T09:15:19.889Z,102255.34
2023-05-02T09:17:48.792Z,102258.47
2023-05-02T09:20:16.552Z,102261.00
2023-05-02T09:22:52.865Z,102262.28
2023-05-02T09:25:22.470Z,102271.72
2023-05-02T09:27:54.293Z,102266.75
2023-05-02T09:30:25.417Z,102252.16
2023-05-02T09:32:55.996Z,102246.56
2023-05-02T09:35:25.941Z,102261.34
2023-05-02T09:37:57.207Z,102252.78
2023-05-02T09:40:24.488Z,102263.59
2023-05-02T09:42:52.306Z,102277.28
2023-05-02T09:45:22.104Z,102279.84
2023-05-02T09:47:49.405Z,102287.00
2023-05-02T09:50:36.524Z,102292.56
2023-05-02T09:53:10.984Z,102299.41
2023-05-02T09:55:37.801Z,102298.16
2023-05-02T09:58:04.468Z,102297.56
2023-05-02T10:00:44.372Z,102295.47
2023-05-02T10:03:11.744Z,102272.72
2023-05-02T10:05:39.589Z,102288.16
2023-05-02T10:08:07.545Z,102285.72
2023-05-02T10:10:37.968Z,102288.13
2023-05-02T10:13:05.671Z,102297.84
2023-05-02T10:15:34.353Z,102312.50
2023-05-02T10:18:08.953Z,102317.56
2023-05-02T10:20:38.045Z,102325.75
2023-05-02T10:23:06.081Z,102327.38
2023-05-02T10:25:33.228Z,102330.44
2023-05-02T10:27:59.816Z,102320.53
2023-05-02T10:30:26.835Z,102322.50
2023-05-02T10:32:56.611Z,102305.34
2023-05-02T10:35:25.482Z,102303.03
2023-05-02T10:37:52.962Z,102295.34
2023-05-02T10:40:19.619Z,102319.66
2023-05-02T10:42:47.912Z,102312.69
2023-05-02T10:45:30.682Z,102325.44
2023-05-02T10:48:17.519Z,102317.72
2023-05-02T10:50:47.331Z,102324.31
2023-05-02T10:53:33.677Z,102334.72
2023-05-02T10:56:08.962Z,102324.16
2023-05-02T10:58:35.461Z,102324.69
2023-05-02T11:01:30.718Z,102338.06
2023-05-02T11:04:02.365Z,102346.06
2023-05-02T11:06:37.056Z,102362.25
2023-05-02T11:09:13.717Z,102356.19
2023-05-02T11:11:42.308Z,102367.03
2023-05-02T11:14:09.873Z,102376.19
2023-05-02T11:16:58.722Z,102377.44
2023-05-02T11:19:26.272Z,102365.84
2023-05-02T11:21:53.931Z,102377.09
2023-05-02T11:24:41.378Z,102387.47
2023-05-02T11:27:29.394Z,102374.22
2023-05-02T11:30:06.773Z,102377.88
2023-05-02T11:32:59.382Z,102378.84
2023-05-02T11:35:27.112Z,102376.38
2023-05-02T11:37:54.599Z,102378.09
2023-05-02T11:40:21.613Z,102377.44
2023-05-02T11:42:48.318Z,102380.50
2023-05-02T11:45:15.198Z,102391.03
2023-05-02T11:47:42.935Z,102385.94
2023-05-02T11:50:09.990Z,102378.47
2023-05-02T11:52:40.694Z,102395.06
2023-05-02T11:55:10.415Z,102394.50
2023-05-02T11:57:39.048Z,102392.69
2023-05-02T12:00:06.572Z,102386.81
2023-05-02T12:02:43.473Z,102390.06
2023-05-02T12:05:12.976Z,102404.44
2023-05-02T12:07:41.090Z,102402.50
2023-05-02T12:10:08.845Z,102398.47
2023-05-02T12:12:36.662Z,102392.19
2023-05-02T12:15:07.701Z,102376.94
2023-05-02T12:17:37.157Z,102384.44
2023-05-02T12:20:05.247Z,102374.25
2023-05-02T12:22:31.849Z,102372.81
2023-05-02T12:27:25.472Z,102378.91
2023-05-02T12:29:52.491Z,102379.88
2023-05-02T12:32:30.484Z,102397.09
2023-05-02T12:34:57.988Z,102394.69
2023-05-02T12:37:28.368Z,102396.97
2023-05-02T12:39:56.607Z,102407.56
2023-05-02T12:42:25.384Z,102414.16
2023-05-02T12:44:53.387Z,102420.56
2023-05-02T12:47:22.600Z,102423.06
2023-05-02T12:49:59.765Z,102426.78
2023-05-02T12:53:01.696Z,102424.25
2023-05-02T12:55:28.255Z,102427.56
2023-05-02T12:58:02.971Z,102431.50
2023-05-02T13:00:31.197Z,102445.31
2023-05-02T13:02:57.771Z,102440.19
2023-05-02T13:05:24.912Z,102439.53
2023-05-02T13:07:52.746Z,102444.78
2023-05-02T13:10:19.454Z,102451.06
2023-05-02T13:12:47.050Z,102459.50
2023-05-02T13:15:14.688Z,102457.75
2023-05-02T13:17:41.421Z,102450.50
2023-05-02T13:20:09.541Z,102451.41
2023-05-02T13:22:39.257Z,102452.88
2023-05-02T13:25:06.981Z,102459.56
2023-05-02T13:27:36.358Z,102448.81
2023-05-02T13:30:06.651Z,102466.53
2023-05-02T13:32:35.663Z,102454.91
2023-05-02T13:35:03.739Z,102466.44
2023-05-02T13:37:30.433Z,102457.72
2023-05-02T13:39:57.083Z,102453.59
2023-05-02T13:42:23.518Z,102461.06
2023-05-02T13:44:50.453Z,102457.13
2023-05-02T13:47:16.938Z,102459.78
2023-05-02T13:49:43.425Z,102469.09
2023-05-02T13:52:09.822Z,102471.44
2023-05-02T13:54:36.429Z,102481.28
2023-05-02T13:57:03.145Z,102477.66
2023-05-02T13:59:29.726Z,102480.25
2023-05-02T14:01:56.269Z,102483.50
2023-05-02T14:04:23.725Z,102479.56
2023-05-02T14:06:51.202Z,102500.13
2023-05-02T14:09:18.020Z,102489.69
2023-05-02T14:11:47.118Z,102503.81
2023-05-02T14:14:13.663Z,102507.88
2023-05-02T14:16:40.263Z,102504.13
2023-05-02T14:19:07.104Z,102496.53
2023-05-02T14:21:33.640Z,102494.41
2023-05-02T14:24:00.276Z,102495.47
2023-05-02T14:26:26.772Z,102496.94
2023-05-02T14:28:53.377Z,102485.91
2023-05-02T14:31:19.889Z,102478.06
2023-05-02T14:33:46.486Z,102483.47
2023-05-02T14:36:12.877Z,102489.75
2023-05-02T14:38:39.792Z,102493.09
2023-05-02T14:41:06.912Z,102511.28
2023-05-02T14:43:33.515Z,102503.13
2023-05-02T14:45:59.977Z,102515.28
2023-05-02T14:48:26.904Z,102518.44
2023-05-02T14:50:53.727Z,102522.44
2023-05-02T14:53:21.328Z,102526.38
2023-05-02T14:55:47.831Z,102519.81
2023-05-02T14:58:20.298Z,102522.19
2023-05-02T15:00:47.047Z,102521.47
2023-05-02T15:03:13.973Z,102519.63
2023-05-02T15:05:41.808Z,102511.88
2023-05-02T15:08:08.370Z,102518.03
2023-05-02T15:10:40.845Z,102519.16
2023-05-02T15:13:08.633Z,102528.75
2023-05-02T15:15:35.460Z,102534.78
2023-05-02T15:18:02.161Z,102531.13
2023-05-02T15:20:28.629Z,102539.72
2023-05-02T15:22:55.224Z,102530.56
2023-05-02T15:25:21.875Z,102526.25
2023-05-02T15:27:48.591Z,102519.88
2023-05-02T15:30:17.068Z,102527.47
2023-05-02T15:32:44.622Z,102520.34
2023-05-02T15:35:11.629Z,102544.28
2023-05-02T15:37:38.116Z,102550.16
2023-05-02T15:40:05.350Z,102550.53
2023-05-02T15:42:36.810Z,102564.84
2023-05-02T15:45:04.137Z,102562.75
2023-05-02T15:47:30.702Z,102542.44
2023-05-02T15:49:58.233Z,102560.66
2023-05-02T15:52:24.792Z,102556.06
2023-05-02T15:54:51.686Z,102559.81
2023-05-02T15:57:19.060Z,102554.19
2023-05-02T15:59:45.565Z,102543.22
2023-05-02T16:02:12.108Z,102549.44
2023-05-02T16:04:38.813Z,102544.41
2023-05-02T16:07:05.462Z,102550.91
2023-05-02T16:09:31.930Z,102548.25
2023-05-02T16:11:58.511Z,102558.84
2023-05-02T16:14:26.137Z,102552.75
2023-05-02T16:16:52.702Z,102557.06
2023-05-02T16:19:19.164Z,102559.47
2023-05-02T16:21:45.896Z,102559.38
2023-05-02T16:24:12.359Z,102554.28
2023-05-02T16:26:39.006Z,102549.84
2023-05-02T16:29:05.862Z,102562.94
2023-05-02T16:31:32.332Z,102551.19
2023-05-02T16:33:58.957Z,102562.84
2023-05-02T16:36:26.344Z,102560.81
2023-05-02T16:38:52.821Z,102554.53
2023-05-02T16:41:19.384Z,102564.88
2023-05-02T16:43:46.800Z,102560.94
2023-05-02T16:46:13.404Z,102572.81
2023-05-02T16:48:39.864Z,102576.13
2023-05-02T16:51:06.404Z,102584.00
2023-05-02T16:53:32.889Z,102590.97
2023-05-02T16:55:59.628Z,102599.91
2023-05-02T16:58:28.974Z,102596.34
2023-05-02T17:00:56.111Z,102593.16
2023-05-02T17:03:22.805Z,102600.03
2023-05-02T17:05:49.294Z,102594.88
2023-05-02T17:08:16.918Z,102595.81
2023-05-02T17:10:48.473Z,102605.53
2023-05-02T17:13:14.998Z,102608.66
2023-05-02T17:15:41.873Z,102616.34
2023-05-02T17:18:08.517Z,102613.63
2023-05-02T17:20:35.963Z,102617.81
2023-05-02T17:23:02.893Z,102623.03
2023-05-02T17:25:30.441Z,102615.72
2023-05-02T17:27:57.050Z,102617.59
2023-05-02T17:30:25.018Z,102617.53
2023-05-02T17:32:51.580Z,102622.09
2023-05-02T17:35:18.085Z,102617.09
2023-05-02T17:37:44.762Z,102616.44
2023-05-02T17:40:12.228Z,102632.59
2023-05-02T17:42:38.948Z,102625.31
2023-05-02T17:45:06.760Z,102624.25
2023-05-02T17:47:33.279Z,102627.72
2023-05-02T17:50:02.686Z,102635.31
2023-05-02T17:52:29.382Z,102628.66
2023-05-02T17:54:55.878Z,102639.59
2023-05-02T17:57:22.622Z,102640.00
2023-05-02T17:59:50.569Z,102638.97
2023-05-02T18:02:17.774Z,102641.31
2023-05-02T18:04:46.204Z,102643.13
2023-05-02T18:07:12.786Z,102649.75
2023-05-02T18:09:39.220Z,102647.13
2023-05-02T18:12:06.236Z,102655.31
2023-05-02T18:14:32.886Z,102653.59
2023-05-02T18:16:59.435Z,102655.41
2023-05-02T18:19:25.903Z,102653.59
2023-05-02T18:21:52.454Z,102665.31
2023-05-02T18:24:19.088Z,102667.88
2023-05-02T18:26:48.341Z,102667.88
2023-05-02T18:29:14.811Z,102665.50
2023-05-02T18:31:42.281Z,102669.81
2023-05-02T18:34:09.098Z,102673.03
2023-05-02T18:36:35.673Z,102680.19
2023-05-02T18:39:02.277Z,102670.78
2023-05-02T18:41:28.828Z,102676.88
2023-05-02T18:43:55.467Z,102677.09
2023-05-02T18:46:21.988Z,102685.72
2023-05-02T18:48:48.854Z,102691.56
2023-05-02T18:51:15.810Z,102689.09
2023-05-02T18:53:42.433Z,102692.22
2023-05-02T18:56:14.281Z,102697.28
2023-05-02T18:58:42.060Z,102693.41
2023-05-02T19:01:15.793Z,102701.91
2023-05-02T19:03:43.781Z,102707.63
2023-05-02T19:06:10.764Z,102705.00
2023-05-02T19:08:37.332Z,102705.47
2023-05-02T19:11:04.268Z,102706.38
2023-05-02T19:13:31.250Z,102703.28
2023-05-02T19:15:58.602Z,102715.25
2023-05-02T19:18:25.185Z,102715.72
2023-05-02T19:20:52.424Z,102714.38
2023-05-02T19:23:21.501Z,102735.63
2023-05-02T19:25:47.920Z,102729.00
2023-05-02T19:28:16.769Z,102733.78
2023-05-02T19:30:44.314Z,102739.88
2023-05-02T19:33:10.935Z,102743.91
2023-05-02T19:35:37.427Z,102742.66
2023-05-02T19:38:04.092Z,102748.06
2023-05-02T19:40:31.171Z,102747.78
2023-05-02T19:42:57.690Z,102751.84
2023-05-02T19:45:24.200Z,102753.09
2023-05-02T19:47:51.002Z,102754.91
2023-05-02T19:50:17.649Z,102756.16
2023-05-02T19:52:44.895Z,102757.94
2023-05-02T19:55:11.443Z,102755.22
2023-05-02T19:57:38.155Z,102750.47
2023-05-02T20:00:06.102Z,102754.53
2023-05-02T20:02:39.199Z,102761.34
2023-05-02T20:05:06.291Z,102763.34
2023-05-02T20:07:32.812Z,102764.88
2023-05-02T20:09:59.432Z,102756.94
2023-05-02T20:12:26.201Z,102764.66
2023-05-02T20:14:52.844Z,102762.44
2023-05-02T20:17:19.242Z,102765.16
2023-05-02T20:19:45.890Z,102769.25
2023-05-02T20:22:12.517Z,102765.06
2023-05-02T20:24:39.343Z,102775.69
2023-05-02T20:27:05.857Z,102770.91
2023-05-02T20:29:32.284Z,102771.69
2023-05-02T20:31:59.307Z,102764.91
2023-05-02T20:34:26.172Z,102771.69
2023-05-02T20:36:53.273Z,102770.41
2023-05-02T20:39:22.872Z,102770.97
2023-05-02T20:41:49.706Z,102770.47
2023-05-02T20:44:17.546Z,102774.03
2023-05-02T20:46:44.047Z,102771.31
2023-05-02T20:49:10.507Z,102766.38
2023-05-02T20:51:36.976Z,102773.34
2023-05-02T20:54:03.905Z,102782.66
2023-05-02T20:56:30.470Z,102782.00
2023-05-02T20:58:56.972Z,102783.84
2023-05-02T21:01:23.573Z,102786.91
2023-05-02T21:03:50.084Z,102786.19
2023-05-02T21:06:18.651Z,102786.91
2023-05-02T21:08:45.331Z,102788.66
2023-05-02T21:11:13.868Z,102784.75
2023-05-02T21:13:41.177Z,102783.94
2023-05-02T21:16:18.126Z,102785.25
2023-05-02T21:18:45.615Z,102792.22
2023-05-02T21:21:12.093Z,102783.19
2023-05-02T21:23:38.657Z,102786.22
2023-05-02T21:26:05.431Z,102785.28
2023-05-02T21:28:31.979Z,102796.31
2023-05-02T21:30:58.689Z,102786.00
2023-05-02T21:33:25.190Z,102790.75
2023-05-02T21:35:58.372Z,102790.09
2023-05-02T21:38:26.352Z,102790.63
2023-05-02T21:40:53.873Z,102793.47
2023-05-02T21:43:20.734Z,102801.41
2023-05-02T21:45:48.691Z,102799.25
2023-05-02T21:48:16.502Z,102795.97
2023-05-02T21:50:43.755Z,102802.09
2023-05-02T21:53:10.840Z,102799.94
2023-05-02T21:55:39.106Z,102801.00
2023-05-02T21:58:06.970Z,102805.41
2023-05-02T22:00:33.833Z,102804.19
2023-05-02T22:03:06.103Z,102801.00
2023-05-02T22:05:32.787Z,102798.94
2023-05-02T22:08:00.687Z,102799.41
2023-05-02T22:10:27.103Z,102798.31
2023-05-02T22:12:53.560Z,102798.38
2023-05-02T22:15:19.966Z,102796.69
2023-05-02T22:17:46.578Z,102798.53
2023-05-02T22:20:13.223Z,102792.47
2023-05-02T22:22:40.849Z,102799.19
2023-05-02T22:25:07.781Z,102800.31
2023-05-02T22:27:34.364Z,102800.69
2023-05-02T22:30:01.067Z,102796.03
2023-05-02T22:32:27.883Z,102802.63
2023-05-02T22:34:54.275Z,102811.09
2023-05-02T22:37:20.751Z,102811.22
2023-05-02T22:39:47.150Z,102815.03
2023-05-02T22:42:13.724Z,102815.25
2023-05-02T22:44:50.890Z,102816.78
2023-05-02T22:47:23.257Z,102820.47
2023-05-02T22:49:50.949Z,102817.59
2023-05-02T22:52:18.313Z,102819.50
2023-05-02T22:54:44.771Z,102822.34
2023-05-02T22:57:11.312Z,102818.84
2023-05-02T22:59:37.724Z,102820.25
2023-05-02T23:02:04.577Z,102823.00
2023-05-02T23:04:32.819Z,102823.22
2023-05-02T23:06:59.811Z,102816.41
2023-05-02T23:09:26.240Z,102824.34
2023-05-02T23:11:52.836Z,102825.53
2023-05-02T23:14:21.791Z,102824.09
2023-05-02T23:16:53.769Z,102824.09
2023-05-02T23:19:20.401Z,102829.47
2023-05-02T23:21:47.095Z,102828.63
2023-05-02T23:24:13.602Z,102831.25
2023-05-02T23:26:40.929Z,102825.63
2023-05-02T23:29:07.449Z,102828.56
2023-05-02T23:31:34.211Z,102836.34
2023-05-02T23:34:00.823Z,102830.34
2023-05-02T23:36:27.408Z,102834.66
2023-05-02T23:38:54.093Z,102835.78
2023-05-02T23:41:22.223Z,102834.28
2023-05-02T23:43:48.842Z,102838.88
2023-05-02T23:46:15.375Z,102838.00
2023-05-02T23:48:41.794Z,102841.66
2023-05-02T23:51:08.366Z,102845.06
2023-05-02T23:53:34.839Z,102844.16
2023-05-02T23:56:01.510Z,102835.84
2023-05-02T23:58:28.047Z,102841.06
